Jacksonville Naval Air Station (NIP/KNIP)




Airport Information
Location: Jacksonville, US
Coordinates: 30.2337 / -81.6761
Elevation:
Time Offset:
Local Time:
UTC Time:
Jet A Price: $/lbs

Current Weather
METAR: KNIP 191753Z 01005KT 10SM FEW250 17/M02 A3039 RMK AO2 SLP285 T01671017 10167 20033 58008
TAF:
Warning: file_get_contents(): SSL: Connection reset by peer in /var/www/capitollogistics/lib/skins/urban/hub/aptview.php on line 208

Warning: file_get_contents(): Failed to enable crypto in /var/www/capitollogistics/lib/skins/urban/hub/aptview.php on line 208

Warning: file_get_contents(https://api.aviationapi.com/v1/weather/taf?apt=KNIP): failed to open stream: operation failed in /var/www/capitollogistics/lib/skins/urban/hub/aptview.php on line 208

Recent Arrivals
Date Flight Type Depart
01/14/2019 CPX804 B752 Guantánamo Bay Naval Air Station (MUGM)
01/11/2019 CMB802 B752 Joint Base McGuire Dix Lakehurst (KWRI)
09/28/2018 CPX804 B752 Guantánamo Bay Naval Air Station (MUGM)
09/25/2018 CPX802 B752 Joint Base McGuire Dix Lakehurst (KWRI)
Recent Departures
Date Flight Type Arrive
01/19/2019 CPX996 B752 Miami International Airport (KMIA)
01/13/2019 CMB803 B752 Guantánamo Bay Naval Air Station (MUGM)
09/28/2018 CPX805 B752 Joint Base McGuire Dix Lakehurst (KWRI)
09/25/2018 CPX803 B752 Guantánamo Bay Naval Air Station (MUGM)